Rock Springs, Wisconsin
Current Conditions -  °F | °C
As of 4:15 AM on Tuesday 27 Jan 2015 (Local Time) from KC35 Reporting Station
Overcast Overcast  
Wind Chill: -9°   Ceiling: 900
Heat Index: -5°   Visibility: 10mi
Dew Point: -6°   Wind: 7mph
Humidity: 91%   Direction: 350°N
Pressure: 30.04"   Gusts: NA
Location:  43.49°N, 89.92°W
Report Text: KC35 271015Z AUTO 35006KT 10SM OVC009 M05/M06 A3004 RMK AO2 T10471060
Loading
Personal Weather Stations






























Interactive Weather Map New forecast layout! Learn more

10-Day Weather Forecast

Advertisements
Track Severe Weather on mobile